RYR82JL EDDH-EGSS
Flight info
| Callsign | RYR82JL |
|---|---|
| Flight time | 1h 10m |
| Altitude | 38000 |
| Route | WSN5C/05 WSN N125 EKNON DCT NOGRO M40 RINIS RINIS1A |
| Aircraft | B738/M-SDE2E3FGHIRWXY/LB1 |
Departure
| Time | 2026-04-20 15:17 |
|---|---|
| Airport | Hamburg Helmut Schmidt Airport (EDDH) |
Arrival
| Time | 2026-04-20 16:27 |
|---|---|
| Airport | London Stansted Airport (EGSS) |
| Time | Latitude | Longitude | Altitude | Speed | Heading |
|---|---|---|---|---|---|
| 2026-04-20 14:48 | 53.62645 | 10.00368 | 45 ft | 0 kts | 81° |
| 2026-04-20 14:49 | 53.62807 | 10.00239 | 44 ft | 0 kts | 62° |
| 2026-04-20 15:07 | 53.62796 | 10.00207 | 40 ft | 4 kts | 58° |
| 2026-04-20 15:07 | 53.62783 | 10.00170 | 42 ft | 4 kts | 54° |
| 2026-04-20 15:07 | 53.62765 | 10.00145 | 42 ft | 4 kts | 1° |
| 2026-04-20 15:07 | 53.62741 | 10.00156 | 41 ft | 4 kts | 330° |
| 2026-04-20 15:08 | 53.62719 | 10.00178 | 43 ft | 2 kts | 333° |
| 2026-04-20 15:08 | 53.62718 | 10.00179 | 45 ft | 0 kts | 333° |
| 2026-04-20 15:11 | 53.62729 | 10.00170 | 45 ft | 4 kts | 334° |
| 2026-04-20 15:11 | 53.62770 | 10.00137 | 45 ft | 9 kts | 334° |
| 2026-04-20 15:11 | 53.62831 | 10.00059 | 45 ft | 13 kts | 292° |
| 2026-04-20 15:11 | 53.62780 | 9.99938 | 44 ft | 15 kts | 208° |
| 2026-04-20 15:12 | 53.62670 | 9.99836 | 46 ft | 21 kts | 218° |
| 2026-04-20 15:12 | 53.62619 | 9.99588 | 45 ft | 24 kts | 259° |
| 2026-04-20 15:12 | 53.62588 | 9.99318 | 44 ft | 23 kts | 259° |
| 2026-04-20 15:12 | 53.62559 | 9.99058 | 43 ft | 22 kts | 259° |
| 2026-04-20 15:13 | 53.62531 | 9.98806 | 42 ft | 22 kts | 259° |
| 2026-04-20 15:13 | 53.62504 | 9.98565 | 41 ft | 12 kts | 259° |
| 2026-04-20 15:13 | 53.62496 | 9.98498 | 41 ft | 6 kts | 259° |
| 2026-04-20 15:13 | 53.62485 | 9.98410 | 41 ft | 10 kts | 259° |
| 2026-04-20 15:14 | 53.62470 | 9.98273 | 41 ft | 14 kts | 259° |
| 2026-04-20 15:14 | 53.62449 | 9.98092 | 38 ft | 18 kts | 259° |
| 2026-04-20 15:14 | 53.62428 | 9.97887 | 40 ft | 11 kts | 270° |
| 2026-04-20 15:14 | 53.62429 | 9.97870 | 40 ft | 0 kts | 281° |
| 2026-04-20 15:15 | 53.62435 | 9.97846 | 40 ft | 7 kts | 298° |
| 2026-04-20 15:16 | 53.62489 | 9.97768 | 39 ft | 12 kts | 339° |
| 2026-04-20 15:16 | 53.62557 | 9.97849 | 41 ft | 16 kts | 50° |
| 2026-04-20 15:16 | 53.62781 | 9.98302 | 43 ft | 86 kts | 50° |
| 2026-04-20 15:16 | 53.63300 | 9.99350 | 90 ft | 141 kts | 50° |
| 2026-04-20 15:17 | 53.63957 | 10.00684 | 693 ft | 153 kts | 51° |
| 2026-04-20 15:17 | 53.64630 | 10.02049 | 1607 ft | 150 kts | 49° |
| 2026-04-20 15:17 | 53.65327 | 10.03451 | 2260 ft | 167 kts | 51° |
| 2026-04-20 15:17 | 53.66102 | 10.05042 | 2767 ft | 181 kts | 51° |
| 2026-04-20 15:18 | 53.66926 | 10.06722 | 3322 ft | 191 kts | 52° |
| 2026-04-20 15:18 | 53.67790 | 10.08489 | 3962 ft | 201 kts | 52° |
| 2026-04-20 15:18 | 53.68410 | 10.09694 | 4389 ft | 207 kts | 44° |
| 2026-04-20 15:18 | 53.69685 | 10.10723 | 5346 ft | 210 kts | 11° |
| 2026-04-20 15:19 | 53.71191 | 10.10252 | 5965 ft | 231 kts | 334° |
| 2026-04-20 15:19 | 53.72357 | 10.08363 | 6812 ft | 240 kts | 304° |
| 2026-04-20 15:19 | 53.73129 | 10.05757 | 7276 ft | 259 kts | 298° |
| 2026-04-20 15:19 | 53.73933 | 10.02919 | 7557 ft | 284 kts | 298° |
| 2026-04-20 15:20 | 53.74763 | 9.99791 | 8087 ft | 298 kts | 289° |
| 2026-04-20 15:20 | 53.74903 | 9.96313 | 8953 ft | 301 kts | 260° |
| 2026-04-20 15:20 | 53.74239 | 9.92959 | 9791 ft | 300 kts | 245° |
| 2026-04-20 15:20 | 53.73402 | 9.89691 | 10498 ft | 308 kts | 245° |
| 2026-04-20 15:21 | 53.72509 | 9.86264 | 10767 ft | 330 kts | 245° |
| 2026-04-20 15:21 | 53.71552 | 9.82579 | 10940 ft | 354 kts | 245° |
| 2026-04-20 15:21 | 53.70549 | 9.78680 | 11379 ft | 366 kts | 245° |
| 2026-04-20 15:21 | 53.69537 | 9.74722 | 12170 ft | 367 kts | 246° |
| 2026-04-20 15:22 | 53.68521 | 9.70729 | 12838 ft | 374 kts | 246° |
| 2026-04-20 15:22 | 53.67502 | 9.66726 | 13545 ft | 379 kts | 246° |
| 2026-04-20 15:22 | 53.66454 | 9.62624 | 14282 ft | 383 kts | 246° |
| 2026-04-20 15:22 | 53.65385 | 9.58468 | 14969 ft | 387 kts | 245° |
| 2026-04-20 15:23 | 53.64025 | 9.54544 | 15739 ft | 389 kts | 234° |
| 2026-04-20 15:23 | 53.62395 | 9.50860 | 16419 ft | 395 kts | 232° |
| 2026-04-20 15:23 | 53.60731 | 9.47181 | 17287 ft | 394 kts | 233° |
| 2026-04-20 15:23 | 53.59076 | 9.43471 | 17987 ft | 399 kts | 233° |
| 2026-04-20 15:24 | 53.57416 | 9.39676 | 18554 ft | 406 kts | 234° |
| 2026-04-20 15:24 | 53.55746 | 9.35806 | 19171 ft | 409 kts | 234° |
| 2026-04-20 15:24 | 53.54079 | 9.31937 | 19896 ft | 409 kts | 234° |
| 2026-04-20 15:24 | 53.52401 | 9.28050 | 20483 ft | 413 kts | 234° |
| 2026-04-20 15:25 | 53.50698 | 9.24120 | 21044 ft | 418 kts | 234° |
| 2026-04-20 15:25 | 53.48978 | 9.20163 | 21646 ft | 421 kts | 234° |
| 2026-04-20 15:25 | 53.47248 | 9.16186 | 22261 ft | 423 kts | 234° |
| 2026-04-20 15:25 | 53.45497 | 9.12167 | 22773 ft | 429 kts | 234° |
| 2026-04-20 15:26 | 53.43745 | 9.08150 | 23360 ft | 430 kts | 234° |
| 2026-04-20 15:26 | 53.41974 | 9.04095 | 23947 ft | 432 kts | 234° |
| 2026-04-20 15:26 | 53.40190 | 9.00015 | 24348 ft | 437 kts | 233° |
| 2026-04-20 15:26 | 53.38392 | 8.95909 | 24902 ft | 436 kts | 233° |
| 2026-04-20 15:27 | 53.36595 | 8.91812 | 25407 ft | 438 kts | 233° |
| 2026-04-20 15:27 | 53.34807 | 8.87655 | 25783 ft | 442 kts | 237° |
| 2026-04-20 15:27 | 53.33490 | 8.82982 | 26155 ft | 446 kts | 250° |
| 2026-04-20 15:27 | 53.32499 | 8.78055 | 26608 ft | 448 kts | 252° |
| 2026-04-20 15:28 | 53.31490 | 8.73106 | 27009 ft | 451 kts | 250° |
| 2026-04-20 15:28 | 53.30433 | 8.68222 | 27398 ft | 454 kts | 249° |
| 2026-04-20 15:28 | 53.29328 | 8.63263 | 27801 ft | 456 kts | 249° |
| 2026-04-20 15:28 | 53.28224 | 8.58249 | 28190 ft | 459 kts | 249° |
| 2026-04-20 15:29 | 53.27124 | 8.53223 | 28571 ft | 461 kts | 249° |
| 2026-04-20 15:29 | 53.26025 | 8.48170 | 28949 ft | 464 kts | 250° |
| 2026-04-20 15:29 | 53.25014 | 8.43038 | 29310 ft | 467 kts | 252° |
| 2026-04-20 15:29 | 53.24059 | 8.37836 | 29654 ft | 469 kts | 252° |
| 2026-04-20 15:30 | 53.23125 | 8.32675 | 29987 ft | 471 kts | 252° |
| 2026-04-20 15:30 | 53.22161 | 8.27432 | 30299 ft | 474 kts | 252° |
| 2026-04-20 15:30 | 53.21171 | 8.22146 | 30624 ft | 474 kts | 252° |
| 2026-04-20 15:30 | 53.20176 | 8.16905 | 31100 ft | 471 kts | 251° |
| 2026-04-20 15:31 | 53.19187 | 8.11730 | 31662 ft | 466 kts | 251° |
| 2026-04-20 15:31 | 53.18213 | 8.06598 | 32104 ft | 464 kts | 252° |
| 2026-04-20 15:31 | 53.17243 | 8.01455 | 32399 ft | 465 kts | 252° |
| 2026-04-20 15:31 | 53.16284 | 7.96368 | 32732 ft | 466 kts | 252° |
| 2026-04-20 15:32 | 53.15308 | 7.91203 | 33093 ft | 465 kts | 252° |
| 2026-04-20 15:32 | 53.14334 | 7.86065 | 33487 ft | 464 kts | 252° |
| 2026-04-20 15:32 | 53.13362 | 7.80957 | 33950 ft | 461 kts | 252° |
| 2026-04-20 15:32 | 53.12392 | 7.75873 | 34289 ft | 461 kts | 253° |
| 2026-04-20 15:33 | 53.11415 | 7.70767 | 34512 ft | 461 kts | 253° |
| 2026-04-20 15:33 | 53.10442 | 7.65699 | 34846 ft | 460 kts | 253° |
| 2026-04-20 15:33 | 53.09479 | 7.60699 | 35128 ft | 458 kts | 252° |
| 2026-04-20 15:33 | 53.08504 | 7.55647 | 35370 ft | 459 kts | 252° |
| 2026-04-20 15:34 | 53.07524 | 7.50581 | 35645 ft | 458 kts | 252° |
| 2026-04-20 15:34 | 53.06546 | 7.45527 | 35962 ft | 457 kts | 252° |
| 2026-04-20 15:34 | 53.05572 | 7.40506 | 36231 ft | 456 kts | 252° |
| 2026-04-20 15:34 | 53.04594 | 7.35490 | 36469 ft | 456 kts | 253° |
| 2026-04-20 15:35 | 53.03615 | 7.30466 | 36739 ft | 456 kts | 253° |
| 2026-04-20 15:35 | 53.02638 | 7.25469 | 37033 ft | 454 kts | 253° |
| 2026-04-20 15:35 | 53.01662 | 7.20505 | 37417 ft | 451 kts | 253° |
| 2026-04-20 15:35 | 53.00671 | 7.15567 | 37638 ft | 451 kts | 252° |
| 2026-04-20 15:36 | 52.99665 | 7.10629 | 37821 ft | 452 kts | 252° |
| 2026-04-20 15:36 | 52.98656 | 7.05705 | 38138 ft | 449 kts | 252° |
| 2026-04-20 15:36 | 52.97650 | 7.00810 | 38216 ft | 449 kts | 252° |
| 2026-04-20 15:37 | 52.95627 | 6.90973 | 38227 ft | 451 kts | 252° |
| 2026-04-20 15:37 | 52.93596 | 6.81118 | 38242 ft | 451 kts | 252° |
| 2026-04-20 15:38 | 52.91557 | 6.71271 | 38230 ft | 452 kts | 252° |
| 2026-04-20 15:38 | 52.89520 | 6.61488 | 38248 ft | 452 kts | 252° |
| 2026-04-20 15:39 | 52.87459 | 6.51638 | 38226 ft | 452 kts | 252° |
| 2026-04-20 15:39 | 52.85399 | 6.41827 | 38223 ft | 451 kts | 252° |
| 2026-04-20 15:40 | 52.83331 | 6.32030 | 38239 ft | 450 kts | 252° |
| 2026-04-20 15:40 | 52.81275 | 6.22269 | 38218 ft | 449 kts | 252° |
| 2026-04-20 15:41 | 52.79224 | 6.12543 | 38232 ft | 447 kts | 252° |
| 2026-04-20 15:41 | 52.77174 | 6.02915 | 38212 ft | 447 kts | 250° |
| 2026-04-20 15:42 | 52.74783 | 5.93453 | 38229 ft | 446 kts | 247° |
| 2026-04-20 15:42 | 52.72229 | 5.84113 | 38224 ft | 446 kts | 247° |
| 2026-04-20 15:43 | 52.69683 | 5.74786 | 38221 ft | 446 kts | 247° |
| 2026-04-20 15:43 | 52.67151 | 5.65429 | 38220 ft | 447 kts | 247° |
| 2026-04-20 15:44 | 52.64625 | 5.56074 | 38221 ft | 447 kts | 248° |
| 2026-04-20 15:44 | 52.62089 | 5.46704 | 38209 ft | 448 kts | 248° |
| 2026-04-20 15:45 | 52.59556 | 5.37396 | 38212 ft | 448 kts | 248° |
| 2026-04-20 15:45 | 52.56999 | 5.28038 | 38217 ft | 449 kts | 248° |
| 2026-04-20 15:46 | 52.54424 | 5.18652 | 38218 ft | 450 kts | 247° |
| 2026-04-20 15:46 | 52.51843 | 5.09284 | 38221 ft | 450 kts | 248° |
| 2026-04-20 15:47 | 52.49248 | 4.99903 | 38217 ft | 452 kts | 247° |
| 2026-04-20 15:47 | 52.46659 | 4.90580 | 38207 ft | 452 kts | 247° |
| 2026-04-20 15:48 | 52.44043 | 4.81197 | 38211 ft | 451 kts | 247° |
| 2026-04-20 15:48 | 52.41425 | 4.71845 | 38213 ft | 451 kts | 247° |
| 2026-04-20 15:49 | 52.38804 | 4.62518 | 38213 ft | 451 kts | 247° |
| 2026-04-20 15:49 | 52.36188 | 4.53248 | 38221 ft | 450 kts | 247° |
| 2026-04-20 15:50 | 52.33555 | 4.43954 | 38216 ft | 450 kts | 247° |
| 2026-04-20 15:50 | 52.30914 | 4.34668 | 38227 ft | 449 kts | 247° |
| 2026-04-20 15:51 | 52.28273 | 4.25419 | 38225 ft | 449 kts | 247° |
| 2026-04-20 15:51 | 52.25628 | 4.16192 | 38222 ft | 449 kts | 247° |
| 2026-04-20 15:52 | 52.22972 | 4.06965 | 38232 ft | 449 kts | 246° |
| 2026-04-20 15:52 | 52.20311 | 3.97753 | 38236 ft | 448 kts | 247° |
| 2026-04-20 15:53 | 52.16317 | 3.83995 | 38235 ft | 447 kts | 246° |
| 2026-04-20 15:53 | 52.13664 | 3.74902 | 38225 ft | 447 kts | 246° |
| 2026-04-20 15:54 | 52.12317 | 3.70294 | 37725 ft | 452 kts | 246° |
| 2026-04-20 15:54 | 52.10968 | 3.65689 | 37176 ft | 450 kts | 246° |
| 2026-04-20 15:54 | 52.09621 | 3.61107 | 36633 ft | 448 kts | 246° |
| 2026-04-20 15:54 | 52.08275 | 3.56532 | 36030 ft | 448 kts | 246° |
| 2026-04-20 15:55 | 52.06928 | 3.51962 | 35401 ft | 448 kts | 246° |
| 2026-04-20 15:55 | 52.05578 | 3.47389 | 34736 ft | 450 kts | 246° |
| 2026-04-20 15:55 | 52.04220 | 3.42801 | 34113 ft | 449 kts | 247° |
| 2026-04-20 15:55 | 52.02874 | 3.38260 | 33588 ft | 445 kts | 247° |
| 2026-04-20 15:56 | 52.01535 | 3.33751 | 33074 ft | 440 kts | 247° |
| 2026-04-20 15:56 | 52.00212 | 3.29302 | 32581 ft | 435 kts | 246° |
| 2026-04-20 15:56 | 51.98900 | 3.24903 | 32122 ft | 430 kts | 247° |
| 2026-04-20 15:56 | 51.97621 | 3.20553 | 31655 ft | 424 kts | 250° |
| 2026-04-20 15:57 | 51.96664 | 3.16074 | 31205 ft | 417 kts | 258° |
| 2026-04-20 15:57 | 51.96142 | 3.11554 | 30758 ft | 411 kts | 266° |
| 2026-04-20 15:57 | 51.95861 | 3.06967 | 30317 ft | 406 kts | 266° |
| 2026-04-20 15:57 | 51.95587 | 3.02425 | 29767 ft | 403 kts | 266° |
| 2026-04-20 15:58 | 51.95307 | 2.97923 | 29274 ft | 398 kts | 266° |
| 2026-04-20 15:58 | 51.95021 | 2.93489 | 28803 ft | 394 kts | 266° |
| 2026-04-20 15:58 | 51.94729 | 2.89100 | 28347 ft | 389 kts | 266° |
| 2026-04-20 15:58 | 51.94438 | 2.84774 | 27875 ft | 384 kts | 266° |
| 2026-04-20 15:59 | 51.94147 | 2.80489 | 27410 ft | 381 kts | 266° |
| 2026-04-20 15:59 | 51.93857 | 2.76245 | 26959 ft | 377 kts | 266° |
| 2026-04-20 15:59 | 51.93568 | 2.72036 | 26512 ft | 374 kts | 266° |
| 2026-04-20 15:59 | 51.93279 | 2.67854 | 26065 ft | 371 kts | 266° |
| 2026-04-20 16:00 | 51.92992 | 2.63705 | 25622 ft | 369 kts | 266° |
| 2026-04-20 16:00 | 51.92709 | 2.59585 | 25180 ft | 366 kts | 266° |
| 2026-04-20 16:00 | 51.92428 | 2.55497 | 24748 ft | 364 kts | 266° |
| 2026-04-20 16:00 | 51.92146 | 2.51418 | 24298 ft | 363 kts | 266° |
| 2026-04-20 16:01 | 51.91864 | 2.47355 | 23856 ft | 362 kts | 266° |
| 2026-04-20 16:01 | 51.91587 | 2.43368 | 23352 ft | 360 kts | 266° |
| 2026-04-20 16:01 | 51.91302 | 2.39300 | 22916 ft | 356 kts | 266° |
| 2026-04-20 16:01 | 51.91025 | 2.35390 | 22510 ft | 353 kts | 266° |
| 2026-04-20 16:02 | 51.90757 | 2.31466 | 22117 ft | 348 kts | 268° |
| 2026-04-20 16:02 | 51.90618 | 2.27571 | 21764 ft | 345 kts | 270° |
| 2026-04-20 16:02 | 51.90545 | 2.23705 | 21407 ft | 343 kts | 271° |
| 2026-04-20 16:02 | 51.90483 | 2.19828 | 21059 ft | 346 kts | 271° |
| 2026-04-20 16:03 | 51.90414 | 2.15912 | 20710 ft | 349 kts | 271° |
| 2026-04-20 16:03 | 51.90335 | 2.11990 | 20356 ft | 347 kts | 270° |
| 2026-04-20 16:03 | 51.90248 | 2.08091 | 20002 ft | 345 kts | 270° |
| 2026-04-20 16:03 | 51.90157 | 2.04223 | 19654 ft | 343 kts | 270° |
| 2026-04-20 16:04 | 51.90096 | 2.01666 | 19426 ft | 342 kts | 270° |
| 2026-04-20 16:04 | 51.90003 | 1.97822 | 19082 ft | 341 kts | 270° |
| 2026-04-20 16:04 | 51.89908 | 1.94000 | 18727 ft | 339 kts | 270° |
| 2026-04-20 16:04 | 51.89852 | 1.90186 | 18360 ft | 336 kts | 276° |
| 2026-04-20 16:05 | 51.90401 | 1.86552 | 18041 ft | 329 kts | 294° |
| 2026-04-20 16:05 | 51.91403 | 1.83248 | 17745 ft | 326 kts | 299° |
| 2026-04-20 16:05 | 51.92487 | 1.80017 | 17462 ft | 328 kts | 300° |
| 2026-04-20 16:05 | 51.93595 | 1.76765 | 17167 ft | 330 kts | 300° |
| 2026-04-20 16:06 | 51.94687 | 1.73543 | 16876 ft | 329 kts | 300° |
| 2026-04-20 16:06 | 51.95776 | 1.70299 | 16585 ft | 327 kts | 299° |
| 2026-04-20 16:06 | 51.96845 | 1.67065 | 16295 ft | 324 kts | 299° |
| 2026-04-20 16:06 | 51.97919 | 1.63850 | 16013 ft | 324 kts | 299° |
| 2026-04-20 16:07 | 51.98983 | 1.60624 | 15738 ft | 324 kts | 299° |
| 2026-04-20 16:07 | 52.00040 | 1.57396 | 15460 ft | 323 kts | 299° |
| 2026-04-20 16:07 | 52.01088 | 1.54187 | 15172 ft | 321 kts | 300° |
| 2026-04-20 16:07 | 52.02132 | 1.50994 | 14888 ft | 319 kts | 300° |
| 2026-04-20 16:08 | 52.03173 | 1.47821 | 14594 ft | 319 kts | 300° |
| 2026-04-20 16:08 | 52.04211 | 1.44649 | 14334 ft | 317 kts | 299° |
| 2026-04-20 16:08 | 52.05232 | 1.41490 | 14052 ft | 315 kts | 300° |
| 2026-04-20 16:08 | 52.06253 | 1.38344 | 13758 ft | 314 kts | 300° |
| 2026-04-20 16:09 | 52.07269 | 1.35216 | 13460 ft | 312 kts | 300° |
| 2026-04-20 16:09 | 52.08278 | 1.32112 | 13181 ft | 310 kts | 300° |
| 2026-04-20 16:09 | 52.09319 | 1.29011 | 12930 ft | 313 kts | 300° |
| 2026-04-20 16:09 | 52.10327 | 1.25883 | 12646 ft | 309 kts | 299° |
| 2026-04-20 16:10 | 52.11254 | 1.22755 | 12348 ft | 306 kts | 290° |
| 2026-04-20 16:10 | 52.11506 | 1.19353 | 12134 ft | 303 kts | 270° |
| 2026-04-20 16:10 | 52.11147 | 1.16002 | 11929 ft | 299 kts | 259° |
| 2026-04-20 16:10 | 52.10605 | 1.12756 | 11709 ft | 295 kts | 256° |
| 2026-04-20 16:11 | 52.10048 | 1.09567 | 11498 ft | 292 kts | 258° |
| 2026-04-20 16:11 | 52.09496 | 1.06385 | 11296 ft | 292 kts | 258° |
| 2026-04-20 16:11 | 52.08949 | 1.03204 | 11086 ft | 292 kts | 258° |
| 2026-04-20 16:11 | 52.08407 | 1.00025 | 10884 ft | 292 kts | 257° |
| 2026-04-20 16:12 | 52.07867 | 0.96846 | 10677 ft | 292 kts | 258° |
| 2026-04-20 16:12 | 52.07329 | 0.93671 | 10478 ft | 290 kts | 257° |
| 2026-04-20 16:12 | 52.06800 | 0.90538 | 10260 ft | 285 kts | 258° |
| 2026-04-20 16:12 | 52.06280 | 0.87456 | 10043 ft | 281 kts | 257° |
| 2026-04-20 16:13 | 52.05764 | 0.84407 | 9829 ft | 278 kts | 258° |
| 2026-04-20 16:13 | 52.05256 | 0.81397 | 9612 ft | 274 kts | 257° |
| 2026-04-20 16:13 | 52.04754 | 0.78422 | 9426 ft | 272 kts | 258° |
| 2026-04-20 16:13 | 52.04259 | 0.75508 | 9242 ft | 271 kts | 257° |
| 2026-04-20 16:14 | 52.03759 | 0.72562 | 9048 ft | 270 kts | 258° |
| 2026-04-20 16:14 | 52.03263 | 0.69631 | 8861 ft | 269 kts | 257° |
| 2026-04-20 16:14 | 52.02768 | 0.66718 | 8673 ft | 266 kts | 257° |
| 2026-04-20 16:14 | 52.02276 | 0.63837 | 8473 ft | 263 kts | 256° |
| 2026-04-20 16:15 | 52.01791 | 0.60991 | 8296 ft | 260 kts | 257° |
| 2026-04-20 16:15 | 52.01424 | 0.58105 | 7903 ft | 264 kts | 268° |
| 2026-04-20 16:15 | 52.01287 | 0.55120 | 7501 ft | 269 kts | 268° |
| 2026-04-20 16:15 | 52.01159 | 0.52045 | 7050 ft | 276 kts | 268° |
| 2026-04-20 16:16 | 52.01011 | 0.48898 | 6524 ft | 285 kts | 269° |
| 2026-04-20 16:16 | 52.00855 | 0.45645 | 6117 ft | 288 kts | 268° |
| 2026-04-20 16:16 | 52.00726 | 0.42445 | 6023 ft | 280 kts | 270° |
| 2026-04-20 16:16 | 52.00607 | 0.39343 | 5989 ft | 269 kts | 268° |
| 2026-04-20 16:17 | 52.00491 | 0.36399 | 5965 ft | 253 kts | 269° |
| 2026-04-20 16:17 | 52.00380 | 0.33599 | 5998 ft | 246 kts | 268° |
| 2026-04-20 16:17 | 52.00269 | 0.30828 | 5982 ft | 246 kts | 267° |
| 2026-04-20 16:17 | 52.00067 | 0.28086 | 5969 ft | 246 kts | 253° |
| 2026-04-20 16:18 | 51.99123 | 0.25807 | 6026 ft | 245 kts | 225° |
| 2026-04-20 16:18 | 51.97864 | 0.23877 | 5949 ft | 253 kts | 224° |
| 2026-04-20 16:18 | 51.96549 | 0.21904 | 5691 ft | 260 kts | 223° |
| 2026-04-20 16:18 | 51.95220 | 0.19913 | 5451 ft | 260 kts | 223° |
| 2026-04-20 16:19 | 51.93896 | 0.17923 | 5200 ft | 259 kts | 223° |
| 2026-04-20 16:19 | 51.92578 | 0.15938 | 4957 ft | 259 kts | 223° |
| 2026-04-20 16:19 | 51.91259 | 0.13947 | 4695 ft | 259 kts | 224° |
| 2026-04-20 16:19 | 51.89939 | 0.11955 | 4460 ft | 259 kts | 224° |
| 2026-04-20 16:20 | 51.88638 | 0.09991 | 4209 ft | 259 kts | 223° |
| 2026-04-20 16:20 | 51.87319 | 0.08002 | 3962 ft | 259 kts | 224° |
| 2026-04-20 16:20 | 51.86005 | 0.06021 | 3721 ft | 257 kts | 224° |
| 2026-04-20 16:20 | 51.84713 | 0.04057 | 3462 ft | 253 kts | 224° |
| 2026-04-20 16:21 | 51.83435 | 0.02106 | 3214 ft | 253 kts | 224° |
| 2026-04-20 16:21 | 51.82158 | 0.00157 | 3016 ft | 252 kts | 224° |
| 2026-04-20 16:21 | 51.80891 | -0.01759 | 2926 ft | 247 kts | 220° |
| 2026-04-20 16:21 | 51.79386 | -0.02954 | 2766 ft | 241 kts | 185° |
| 2026-04-20 16:22 | 51.77798 | -0.02640 | 2666 ft | 223 kts | 155° |
| 2026-04-20 16:22 | 51.76520 | -0.01408 | 2549 ft | 206 kts | 133° |
| 2026-04-20 16:22 | 51.75803 | 0.00425 | 2478 ft | 185 kts | 102° |
| 2026-04-20 16:22 | 51.75737 | 0.02431 | 2491 ft | 176 kts | 77° |
| 2026-04-20 16:23 | 51.76075 | 0.04295 | 2497 ft | 171 kts | 63° |
| 2026-04-20 16:23 | 51.76730 | 0.05838 | 2491 ft | 164 kts | 45° |
| 2026-04-20 16:23 | 51.77545 | 0.07062 | 2499 ft | 159 kts | 44° |
| 2026-04-20 16:23 | 51.78366 | 0.08301 | 2506 ft | 161 kts | 43° |
| 2026-04-20 16:24 | 51.79190 | 0.09488 | 2507 ft | 155 kts | 43° |
| 2026-04-20 16:24 | 51.79977 | 0.10653 | 2447 ft | 154 kts | 43° |
| 2026-04-20 16:24 | 51.80765 | 0.11837 | 2271 ft | 155 kts | 43° |
| 2026-04-20 16:24 | 51.81547 | 0.13014 | 2072 ft | 151 kts | 42° |
| 2026-04-20 16:25 | 51.82311 | 0.14165 | 1850 ft | 149 kts | 42° |
| 2026-04-20 16:25 | 51.83058 | 0.15291 | 1648 ft | 144 kts | 42° |
| 2026-04-20 16:25 | 51.83792 | 0.16397 | 1444 ft | 146 kts | 43° |
| 2026-04-20 16:25 | 51.84530 | 0.17538 | 1197 ft | 146 kts | 44° |
| 2026-04-20 16:26 | 51.85249 | 0.18657 | 1052 ft | 138 kts | 43° |
| 2026-04-20 16:26 | 51.85925 | 0.19679 | 887 ft | 130 kts | 43° |
| 2026-04-20 16:26 | 51.86603 | 0.20655 | 687 ft | 133 kts | 42° |
| 2026-04-20 16:26 | 51.87301 | 0.21694 | 505 ft | 140 kts | 43° |
| 2026-04-20 16:27 | 51.88021 | 0.22762 | 361 ft | 138 kts | 44° |
| 2026-04-20 16:27 | 51.88638 | 0.23683 | 337 ft | 93 kts | 43° |
| 2026-04-20 16:27 | 51.88947 | 0.24150 | 339 ft | 32 kts | 43° |
| 2026-04-20 16:27 | 51.89071 | 0.24423 | 337 ft | 29 kts | 66° |
| 2026-04-20 16:28 | 51.89143 | 0.24705 | 345 ft | 19 kts | 67° |
| 2026-04-20 16:28 | 51.89171 | 0.24824 | 348 ft | 9 kts | 81° |
| 2026-04-20 16:28 | 51.89153 | 0.24917 | 350 ft | 9 kts | 89° |
| 2026-04-20 16:28 | 51.89186 | 0.24996 | 349 ft | 9 kts | 45° |
| 2026-04-20 16:29 | 51.89223 | 0.25069 | 353 ft | 8 kts | 57° |
| 2026-04-20 16:29 | 51.89252 | 0.25148 | 354 ft | 8 kts | 59° |
| 2026-04-20 16:29 | 51.89288 | 0.25216 | 349 ft | 8 kts | 45° |
| 2026-04-20 16:29 | 51.89330 | 0.25281 | 348 ft | 9 kts | 43° |
| 2026-04-20 16:30 | 51.89380 | 0.25357 | 348 ft | 11 kts | 43° |
| 2026-04-20 16:30 | 51.89417 | 0.25474 | 348 ft | 13 kts | 108° |
| 2026-04-20 16:30 | 51.89358 | 0.25589 | 348 ft | 13 kts | 134° |
| 2026-04-20 16:30 | 51.89298 | 0.25691 | 348 ft | 10 kts | 131° |
| 2026-04-20 16:31 | 51.89258 | 0.25761 | 351 ft | 6 kts | 133° |
| 2026-04-20 16:31 | 51.89253 | 0.25816 | 353 ft | 6 kts | 53° |
| 2026-04-20 16:31 | 51.89280 | 0.25856 | 351 ft | 3 kts | 41° |
| 2026-04-20 16:31 | 51.89292 | 0.25873 | 351 ft | 2 kts | 43° |
| 2026-04-20 16:32 | 51.89293 | 0.25875 | 351 ft | 0 kts | 43° |